createdAt,value
2019-04-10T00:00:37.306Z,5.12
2019-04-10T00:01:36.156Z,5.08
2019-04-10T00:02:36.119Z,5.02
2019-04-10T00:03:39.889Z,4.97
2019-04-10T00:04:36.967Z,5.01
2019-04-10T00:05:36.234Z,5.01
2019-04-10T00:06:36.097Z,5.01
2019-04-10T00:07:36.061Z,5.08
2019-04-10T00:08:36.505Z,5.08
2019-04-10T00:09:36.079Z,5.01
2019-04-10T00:10:36.236Z,5.08
2019-04-10T00:11:36.684Z,5.02
2019-04-10T00:12:36.027Z,5.04
2019-04-10T00:13:36.453Z,5.04
2019-04-10T00:14:36.696Z,5.06
2019-04-10T00:15:36.003Z,5.01
2019-04-10T00:16:36.206Z,5.08
2019-04-10T00:17:35.963Z,5.01
2019-04-10T00:18:35.970Z,5.06
2019-04-10T00:19:35.960Z,5.04
2019-04-10T00:20:36.506Z,5.06
2019-04-10T00:21:35.915Z,4.99
2019-04-10T00:22:35.977Z,5.04
2019-04-10T00:23:35.896Z,4.96
2019-04-10T00:24:35.880Z,4.97
2019-04-10T00:25:36.975Z,4.97
2019-04-10T00:26:35.872Z,4.99
2019-04-10T00:27:36.784Z,5.05
2019-04-10T00:28:35.952Z,5.01
2019-04-10T00:29:36.286Z,4.90
2019-04-10T00:30:35.839Z,4.90
2019-04-10T00:31:36.015Z,4.88
2019-04-10T00:32:36.253Z,4.86
2019-04-10T00:33:36.724Z,4.88
2019-04-10T00:34:35.852Z,4.90
2019-04-10T00:35:35.771Z,4.94
2019-04-10T00:36:35.762Z,4.75
2019-04-10T00:37:35.785Z,4.77
2019-04-10T00:38:35.899Z,4.75
2019-04-10T00:39:36.846Z,4.77
2019-04-10T00:40:35.725Z,4.77
2019-04-10T00:41:36.489Z,4.77
2019-04-10T00:42:35.709Z,4.67
2019-04-10T00:43:35.682Z,4.71
2019-04-10T00:44:35.677Z,4.74
2019-04-10T00:45:35.679Z,4.77
2019-04-10T00:46:35.659Z,4.69
2019-04-10T00:47:35.685Z,4.77
2019-04-10T00:48:36.268Z,4.69
2019-04-10T00:49:35.760Z,4.72
2019-04-10T00:50:35.613Z,4.74
2019-04-10T00:51:35.599Z,4.64
2019-04-10T00:52:36.558Z,4.62
2019-04-10T00:53:35.576Z,4.62
2019-04-10T00:54:35.596Z,4.64
2019-04-10T00:55:35.725Z,4.59
2019-04-10T00:56:35.554Z,4.65
2019-04-10T00:57:35.540Z,4.64
2019-04-10T00:58:35.535Z,4.57
2019-04-10T00:59:36.544Z,4.56
2019-04-10T01:00:36.757Z,4.56
2019-04-10T01:01:36.297Z,4.57
2019-04-10T01:02:36.377Z,4.51
2019-04-10T01:03:35.796Z,4.53
2019-04-10T01:04:36.176Z,4.50
2019-04-10T01:05:35.467Z,4.51
2019-04-10T01:06:35.757Z,4.53
2019-04-10T01:07:39.766Z,4.53
2019-04-10T01:08:37.055Z,4.50
2019-04-10T01:09:35.467Z,4.53
2019-04-10T01:10:35.406Z,4.54
2019-04-10T01:11:35.390Z,4.53
2019-04-10T01:12:36.317Z,4.51
2019-04-10T01:13:35.376Z,4.53
2019-04-10T01:14:35.951Z,4.50
2019-04-10T01:15:36.353Z,4.51
2019-04-10T01:16:35.610Z,4.49
2019-04-10T01:17:35.328Z,4.50
2019-04-10T01:18:35.320Z,4.42
2019-04-10T01:19:36.354Z,4.39
2019-04-10T01:20:35.333Z,4.32
2019-04-10T01:21:35.296Z,4.46
2019-04-10T01:22:35.276Z,4.39
2019-04-10T01:23:35.262Z,4.36
2019-04-10T01:24:35.540Z,4.39
2019-04-10T01:25:35.244Z,4.36
2019-04-10T01:26:35.275Z,4.36
2019-04-10T01:27:36.138Z,4.44
2019-04-10T01:28:35.215Z,4.32
2019-04-10T01:29:35.672Z,4.43
2019-04-10T01:30:35.194Z,4.28
2019-04-10T01:31:35.214Z,4.31
2019-04-10T01:32:36.252Z,4.31
2019-04-10T01:33:35.167Z,4.34
2019-04-10T01:34:35.742Z,4.31
2019-04-10T01:35:35.302Z,4.35
2019-04-10T01:36:35.373Z,4.25
2019-04-10T01:37:47.672Z,4.21
2019-04-10T01:38:36.112Z,4.25
2019-04-10T01:39:35.107Z,4.18
2019-04-10T01:40:35.230Z,4.17
2019-04-10T01:41:36.212Z,4.16
2019-04-10T01:42:35.088Z,4.17
2019-04-10T01:43:35.198Z,4.34
2019-04-10T01:44:35.085Z,4.29
2019-04-10T01:45:35.669Z,4.32
2019-04-10T01:46:36.078Z,4.32
2019-04-10T01:47:35.246Z,4.31
2019-04-10T01:48:35.002Z,4.28
2019-04-10T01:49:34.992Z,4.24
2019-04-10T01:50:35.004Z,4.31
2019-04-10T01:51:35.176Z,4.25
2019-04-10T01:52:35.353Z,4.17
2019-04-10T01:53:35.619Z,4.28
2019-04-10T01:54:35.342Z,4.25
2019-04-10T01:55:35.700Z,4.26
2019-04-10T01:56:36.438Z,4.18
2019-04-10T01:57:34.914Z,4.24
2019-04-10T01:58:34.979Z,4.24
2019-04-10T01:59:34.893Z,4.21
2019-04-10T02:00:35.399Z,4.26
2019-04-10T02:01:34.904Z,4.21
2019-04-10T02:02:34.864Z,4.25
2019-04-10T02:03:34.862Z,4.24
2019-04-10T02:04:35.195Z,4.21
2019-04-10T02:05:34.829Z,4.18
2019-04-10T02:06:35.780Z,4.17
2019-04-10T02:07:34.809Z,4.14
2019-04-10T02:08:34.795Z,4.13
2019-04-10T02:09:35.100Z,4.20
2019-04-10T02:10:34.785Z,4.20
2019-04-10T02:11:34.795Z,4.21
2019-04-10T02:12:34.761Z,4.16
2019-04-10T02:13:35.794Z,4.18
2019-04-10T02:14:34.738Z,4.14
2019-04-10T02:15:34.733Z,4.17
2019-04-10T02:16:34.825Z,4.13
2019-04-10T02:17:34.745Z,4.17
2019-04-10T02:18:35.212Z,4.20
2019-04-10T02:19:34.679Z,4.11
2019-04-10T02:20:34.746Z,4.11
2019-04-10T02:21:34.658Z,4.06
2019-04-10T02:22:34.652Z,4.08
2019-04-10T02:23:34.660Z,4.07
2019-04-10T02:24:35.468Z,4.02
2019-04-10T02:25:34.802Z,4.06
2019-04-10T02:26:34.631Z,4.02
2019-04-10T02:27:34.595Z,4.06
2019-04-10T02:28:36.006Z,4.06
2019-04-10T02:29:35.618Z,3.95
2019-04-10T02:30:36.710Z,3.99
2019-04-10T02:31:34.683Z,3.82
2019-04-10T02:32:34.594Z,3.86
2019-04-10T02:33:35.630Z,3.84
2019-04-10T02:34:34.552Z,3.89
2019-04-10T02:35:36.054Z,3.93
2019-04-10T02:36:36.133Z,3.81
2019-04-10T02:37:35.110Z,3.88
2019-04-10T02:38:49.281Z,3.71
2019-04-10T02:39:40.684Z,3.80
2019-04-10T02:40:37.146Z,3.81
2019-04-10T02:41:35.006Z,3.75
2019-04-10T02:42:34.497Z,3.74
2019-04-10T02:43:35.963Z,3.84
2019-04-10T02:44:35.516Z,3.80
2019-04-10T02:45:34.638Z,3.81
2019-04-10T02:46:34.420Z,3.75
2019-04-10T02:47:34.718Z,3.80
2019-04-10T02:48:35.930Z,3.78
2019-04-10T02:49:34.370Z,3.77
2019-04-10T02:50:35.411Z,3.84
2019-04-10T02:51:35.061Z,3.75
2019-04-10T02:52:35.035Z,3.80
2019-04-10T02:53:35.202Z,3.88
2019-04-10T02:54:35.735Z,3.72
2019-04-10T02:55:35.568Z,3.75
2019-04-10T02:56:34.397Z,3.75
2019-04-10T02:57:35.669Z,3.72
2019-04-10T02:58:34.461Z,3.81
2019-04-10T02:59:35.149Z,3.75
2019-04-10T03:00:35.883Z,3.81
2019-04-10T03:01:35.558Z,3.84
2019-04-10T03:02:34.243Z,3.92
2019-04-10T03:03:34.463Z,3.81
2019-04-10T03:04:35.195Z,3.92
2019-04-10T03:05:34.691Z,3.88
2019-04-10T03:06:35.372Z,3.98
2019-04-10T03:07:35.785Z,3.92
2019-04-10T03:08:44.736Z,4.04
2019-04-10T03:09:51.871Z,4.02
2019-04-10T03:10:42.047Z,3.92
2019-04-10T03:11:35.351Z,3.96
2019-04-10T03:12:34.184Z,3.96
2019-04-10T03:13:35.729Z,4.07
2019-04-10T03:14:34.666Z,3.99
2019-04-10T03:15:35.742Z,4.04
2019-04-10T03:16:34.128Z,4.06
2019-04-10T03:17:34.858Z,4.07
2019-04-10T03:18:34.066Z,4.07
2019-04-10T03:19:34.053Z,4.17
2019-04-10T03:20:34.296Z,4.20
2019-04-10T03:21:34.039Z,4.13
2019-04-10T03:22:34.645Z,4.20
2019-04-10T03:23:34.022Z,4.24
2019-04-10T03:24:34.003Z,4.14
2019-04-10T03:25:35.097Z,4.13
2019-04-10T03:26:34.069Z,4.18
2019-04-10T03:27:34.418Z,4.16
2019-04-10T03:28:33.965Z,4.14
2019-04-10T03:29:33.958Z,4.29
2019-04-10T03:30:35.882Z,4.24
2019-04-10T03:31:34.591Z,4.29
2019-04-10T03:32:36.630Z,4.25
2019-04-10T03:33:37.494Z,4.26
2019-04-10T03:34:38.053Z,4.28
2019-04-10T03:35:34.894Z,4.20
2019-04-10T03:36:33.901Z,4.29
2019-04-10T03:37:34.088Z,4.38
2019-04-10T03:38:34.269Z,4.32
2019-04-10T03:39:35.866Z,4.34
2019-04-10T03:40:33.842Z,4.31
2019-04-10T03:41:34.498Z,4.28
2019-04-10T03:42:33.924Z,4.34
2019-04-10T03:43:33.980Z,4.38
2019-04-10T03:44:34.661Z,4.31
2019-04-10T03:45:34.572Z,4.31
2019-04-10T03:46:33.775Z,4.38
2019-04-10T03:47:33.797Z,4.42
2019-04-10T03:48:33.756Z,4.50
2019-04-10T03:49:33.990Z,4.49
2019-04-10T03:50:33.977Z,4.51
2019-04-10T03:51:33.719Z,4.44
2019-04-10T03:52:33.736Z,4.32
2019-04-10T03:53:34.065Z,4.38
2019-04-10T03:54:34.269Z,4.17
2019-04-10T03:55:34.782Z,4.26
2019-04-10T03:56:33.959Z,4.11
2019-04-10T03:57:34.353Z,4.00
2019-04-10T03:58:33.652Z,3.99
2019-04-10T03:59:33.638Z,4.02
2019-04-10T04:00:34.242Z,4.02
2019-04-10T04:01:33.620Z,3.81
2019-04-10T04:02:33.796Z,3.92
2019-04-10T04:03:33.620Z,3.78
2019-04-10T04:04:33.584Z,3.81
2019-04-10T04:05:33.573Z,3.82
2019-04-10T04:06:33.566Z,3.77
2019-04-10T04:07:34.678Z,3.78
2019-04-10T04:08:33.539Z,3.86
2019-04-10T04:09:33.621Z,3.90
2019-04-10T04:10:33.525Z,3.92
2019-04-10T04:11:33.624Z,3.86
2019-04-10T04:12:33.524Z,3.86
2019-04-10T04:13:33.496Z,3.86
2019-04-10T04:14:34.448Z,4.02
2019-04-10T04:15:33.780Z,3.98
2019-04-10T04:16:33.456Z,3.98
2019-04-10T04:17:33.447Z,3.99
2019-04-10T04:18:33.442Z,4.02
2019-04-10T04:19:34.455Z,3.92
2019-04-10T04:20:33.451Z,3.93
2019-04-10T04:21:34.136Z,4.00
2019-04-10T04:22:33.395Z,3.92
2019-04-10T04:23:34.023Z,3.89
2019-04-10T04:24:33.588Z,3.78
2019-04-10T04:25:34.487Z,3.77
2019-04-10T04:26:33.376Z,3.75
2019-04-10T04:27:33.618Z,3.84
2019-04-10T04:28:34.251Z,3.84
2019-04-10T04:29:34.437Z,3.84
2019-04-10T04:30:34.081Z,3.86
2019-04-10T04:31:33.334Z,3.90
2019-04-10T04:32:33.488Z,3.84
2019-04-10T04:33:34.091Z,3.90
2019-04-10T04:34:33.273Z,3.92
2019-04-10T04:35:33.258Z,4.00
2019-04-10T04:36:33.251Z,4.04
2019-04-10T04:37:33.576Z,4.18
2019-04-10T04:38:33.266Z,4.20
2019-04-10T04:39:33.232Z,4.18
2019-04-10T04:40:33.566Z,4.10
2019-04-10T04:41:33.795Z,4.25
2019-04-10T04:42:33.190Z,4.20
2019-04-10T04:43:33.185Z,4.28
2019-04-10T04:44:33.374Z,4.25
2019-04-10T04:45:33.475Z,4.17
2019-04-10T04:46:33.144Z,4.10
2019-04-10T04:47:33.378Z,4.10
2019-04-10T04:48:34.198Z,4.08
2019-04-10T04:49:33.609Z,4.04
2019-04-10T04:50:34.132Z,4.04
2019-04-10T04:51:33.117Z,4.04
2019-04-10T04:52:33.110Z,4.04
2019-04-10T04:53:33.077Z,3.95
2019-04-10T04:54:33.116Z,3.95
2019-04-10T04:55:33.195Z,3.95
2019-04-10T04:56:33.768Z,4.02
2019-04-10T04:57:35.048Z,4.00
2019-04-10T04:58:33.986Z,4.00
2019-04-10T04:59:33.008Z,3.95
2019-04-10T05:00:34.003Z,3.98
2019-04-10T05:01:32.986Z,3.99
2019-04-10T05:02:32.993Z,3.96
2019-04-10T05:03:33.491Z,4.06
2019-04-10T05:04:33.726Z,3.88
2019-04-10T05:05:33.591Z,3.96
2019-04-10T05:06:33.041Z,3.92
2019-04-10T05:07:33.332Z,3.84
2019-04-10T05:08:32.948Z,3.92
2019-04-10T05:09:36.926Z,3.99
2019-04-10T05:10:33.923Z,3.98
2019-04-10T05:11:32.889Z,3.92
2019-04-10T05:12:33.862Z,4.04
2019-04-10T05:13:32.862Z,4.02
2019-04-10T05:14:32.859Z,4.04
2019-04-10T05:15:33.239Z,4.02
2019-04-10T05:16:33.034Z,4.14
2019-04-10T05:17:33.116Z,4.21
2019-04-10T05:18:32.807Z,4.21
2019-04-10T05:19:33.968Z,4.21
2019-04-10T05:20:42.216Z,4.13
2019-04-10T05:21:33.803Z,4.24
2019-04-10T05:22:33.726Z,4.14
2019-04-10T05:23:33.106Z,4.20
2019-04-10T05:24:32.750Z,4.39
2019-04-10T05:25:34.396Z,4.79
2019-04-10T05:26:32.724Z,4.93
2019-04-10T05:27:33.073Z,4.64
2019-04-10T05:28:32.803Z,4.56
2019-04-10T05:29:32.700Z,4.47
2019-04-10T05:30:33.522Z,4.42
2019-04-10T05:31:32.673Z,4.36
2019-04-10T05:32:32.996Z,4.46
2019-04-10T05:33:33.201Z,4.51
2019-04-10T05:34:33.622Z,4.59
2019-04-10T05:35:32.633Z,4.75
2019-04-10T05:36:33.514Z,4.97
2019-04-10T05:37:33.561Z,5.01
2019-04-10T05:38:33.371Z,5.09
2019-04-10T05:39:40.528Z,5.05
2019-04-10T05:40:34.616Z,5.26
2019-04-10T05:41:33.569Z,5.45
2019-04-10T05:42:33.064Z,5.62
2019-04-10T05:43:32.591Z,6.08
2019-04-10T05:44:32.555Z,7.01
2019-04-10T05:45:32.528Z,7.07
2019-04-10T05:46:32.614Z,6.78
2019-04-10T05:47:32.510Z,6.40
2019-04-10T05:48:33.462Z,6.27
2019-04-10T05:49:33.132Z,6.19
2019-04-10T05:50:32.474Z,6.08
2019-04-10T05:51:33.016Z,6.11
2019-04-10T05:52:33.222Z,6.17
2019-04-10T05:53:32.528Z,6.17
2019-04-10T05:54:33.325Z,6.06
2019-04-10T05:55:33.084Z,5.88
2019-04-10T05:56:32.453Z,5.92
2019-04-10T05:57:32.870Z,5.93
2019-04-10T05:58:33.342Z,5.77
2019-04-10T05:59:34.193Z,5.90
2019-04-10T06:00:32.717Z,6.40
2019-04-10T06:01:38.097Z,7.15
2019-04-10T06:02:34.132Z,7.47
2019-04-10T06:03:32.419Z,7.36
2019-04-10T06:04:32.327Z,7.11
2019-04-10T06:05:32.315Z,6.69
2019-04-10T06:06:32.644Z,6.35
2019-04-10T06:07:32.871Z,6.19
2019-04-10T06:08:33.339Z,6.14
2019-04-10T06:09:33.123Z,5.83
2019-04-10T06:10:32.321Z,5.75
2019-04-10T06:11:33.116Z,5.78
2019-04-10T06:12:32.253Z,5.90
2019-04-10T06:13:32.617Z,5.96
2019-04-10T06:14:32.423Z,6.08
2019-04-10T06:15:32.214Z,6.91
2019-04-10T06:16:32.300Z,7.21
2019-04-10T06:17:32.314Z,6.91
2019-04-10T06:18:33.269Z,6.16
2019-04-10T06:19:32.411Z,5.95
2019-04-10T06:20:33.432Z,6.13
2019-04-10T06:21:32.145Z,6.17
2019-04-10T06:22:32.168Z,6.40
2019-04-10T06:23:32.128Z,6.36
2019-04-10T06:24:32.245Z,6.43
2019-04-10T06:25:35.377Z,6.36
2019-04-10T06:26:32.624Z,6.21
2019-04-10T06:27:32.656Z,6.21
2019-04-10T06:28:32.550Z,6.63
2019-04-10T06:29:32.062Z,7.39
2019-04-10T06:30:32.277Z,8.39
2019-04-10T06:31:32.589Z,9.03
2019-04-10T06:32:32.035Z,8.46
2019-04-10T06:33:32.022Z,7.94
2019-04-10T06:34:32.337Z,8.03
2019-04-10T06:35:32.286Z,8.18
2019-04-10T06:36:31.994Z,8.03
2019-04-10T06:37:32.524Z,7.76
2019-04-10T06:38:31.961Z,7.52
2019-04-10T06:39:33.101Z,7.92
2019-04-10T06:40:31.956Z,8.02
2019-04-10T06:41:32.718Z,8.45
2019-04-10T06:42:43.641Z,8.94
2019-04-10T06:43:33.076Z,8.78
2019-04-10T06:44:32.200Z,8.49
2019-04-10T06:45:31.912Z,8.46
2019-04-10T06:46:32.724Z,9.37
2019-04-10T06:47:31.875Z,9.99
2019-04-10T06:48:32.134Z,10.72
2019-04-10T06:49:31.856Z,10.58
2019-04-10T06:50:32.092Z,10.10
2019-04-10T06:51:31.844Z,9.63
2019-04-10T06:52:32.411Z,9.34
2019-04-10T06:53:31.802Z,9.10
2019-04-10T06:54:33.033Z,8.82
2019-04-10T06:55:32.267Z,8.82
2019-04-10T06:56:31.794Z,8.93
2019-04-10T06:57:36.189Z,10.16
2019-04-10T06:58:33.909Z,10.78
2019-04-10T06:59:32.461Z,11.77
2019-04-10T07:00:32.755Z,12.34
2019-04-10T07:01:42.303Z,12.08
2019-04-10T07:02:34.617Z,11.35
2019-04-10T07:03:46.959Z,10.75
2019-04-10T07:04:44.071Z,10.16
2019-04-10T07:05:43.077Z,9.99
2019-04-10T07:06:49.292Z,9.86
2019-04-10T07:07:45.495Z,9.77
2019-04-10T07:08:33.922Z,10.62
2019-04-10T07:09:31.881Z,10.51
2019-04-10T07:10:42.564Z,11.44
2019-04-10T07:11:32.782Z,12.89
2019-04-10T07:12:33.966Z,13.27
2019-04-10T07:13:32.235Z,12.55
2019-04-10T07:14:33.923Z,11.90
2019-04-10T07:15:31.572Z,11.31
2019-04-10T07:16:34.018Z,11.16
2019-04-10T07:17:35.595Z,11.05
2019-04-10T07:18:35.449Z,11.33
2019-04-10T07:19:32.391Z,12.19
2019-04-10T07:20:31.675Z,14.26
2019-04-10T07:21:34.974Z,15.30
2019-04-10T07:22:31.524Z,14.90
2019-04-10T07:23:33.132Z,13.86
2019-04-10T07:24:34.452Z,13.22
2019-04-10T07:25:32.466Z,12.51
2019-04-10T07:26:39.355Z,11.44
2019-04-10T07:27:35.758Z,10.90
2019-04-10T07:28:31.541Z,10.86
2019-04-10T07:29:32.040Z,11.19
2019-04-10T07:30:31.834Z,11.77
2019-04-10T07:31:35.018Z,12.30
2019-04-10T07:32:31.382Z,11.57
2019-04-10T07:33:31.392Z,10.06
2019-04-10T07:34:32.041Z,10.18
2019-04-10T07:35:33.905Z,9.89
2019-04-10T07:36:31.359Z,10.09
2019-04-10T07:37:31.971Z,9.98
2019-04-10T07:38:31.325Z,9.70
2019-04-10T07:39:33.582Z,9.65
2019-04-10T07:40:34.944Z,9.52
2019-04-10T07:41:33.232Z,9.41
2019-04-10T07:42:37.851Z,9.45
2019-04-10T07:43:32.265Z,9.71
2019-04-10T07:44:31.253Z,9.53
2019-04-10T07:45:31.243Z,9.52
2019-04-10T07:46:32.385Z,9.53
2019-04-10T07:47:31.447Z,9.58
2019-04-10T07:48:31.485Z,9.77
2019-04-10T07:49:31.809Z,10.49
2019-04-10T07:50:31.269Z,11.56
2019-04-10T07:51:31.910Z,11.97
2019-04-10T07:52:31.197Z,11.38
2019-04-10T07:53:31.167Z,10.20
2019-04-10T07:54:31.167Z,9.55
2019-04-10T07:55:31.136Z,9.10
2019-04-10T07:56:31.265Z,9.10
2019-04-10T07:57:31.118Z,9.30
2019-04-10T07:58:31.322Z,9.67
2019-04-10T07:59:31.289Z,10.17
2019-04-10T08:00:31.822Z,10.39
2019-04-10T08:01:31.244Z,10.81
2019-04-10T08:02:31.744Z,10.98
2019-04-10T08:03:31.221Z,11.11
2019-04-10T08:04:31.138Z,11.13
2019-04-10T08:05:31.030Z,10.87
2019-04-10T08:06:31.024Z,10.51
2019-04-10T08:07:34.564Z,9.86
2019-04-10T08:08:32.037Z,10.02
2019-04-10T08:09:30.987Z,10.99
2019-04-10T08:10:31.014Z,11.51
2019-04-10T08:11:31.644Z,10.47
2019-04-10T08:12:40.583Z,10.83
2019-04-10T08:13:32.997Z,11.77
2019-04-10T08:14:31.499Z,11.27
2019-04-10T08:15:31.581Z,11.01
2019-04-10T08:16:30.911Z,11.63
2019-04-10T08:17:30.902Z,13.79
2019-04-10T08:18:31.688Z,13.29
2019-04-10T08:19:30.889Z,13.14
2019-04-10T08:20:30.896Z,12.69
2019-04-10T08:21:31.674Z,12.76
2019-04-10T08:22:30.875Z,12.71
2019-04-10T08:23:30.840Z,11.84
2019-04-10T08:24:30.831Z,10.28
2019-04-10T08:25:31.141Z,10.01
2019-04-10T08:26:30.804Z,10.42
2019-04-10T08:27:31.950Z,10.54
2019-04-10T08:28:30.782Z,10.38
2019-04-10T08:29:30.773Z,10.73
2019-04-10T08:30:30.769Z,10.58
2019-04-10T08:31:30.865Z,10.35
2019-04-10T08:32:30.747Z,10.62
2019-04-10T08:33:30.750Z,10.39
2019-04-10T08:34:31.456Z,10.43
2019-04-10T08:35:31.497Z,10.29
2019-04-10T08:36:31.774Z,11.06
2019-04-10T08:37:30.759Z,12.73
2019-04-10T08:38:30.686Z,13.93
2019-04-10T08:39:37.691Z,13.93
2019-04-10T08:40:32.121Z,13.59
2019-04-10T08:41:30.647Z,12.52
2019-04-10T08:42:31.025Z,11.90
2019-04-10T08:43:31.273Z,11.97
2019-04-10T08:44:31.844Z,12.58
2019-04-10T08:45:40.594Z,12.54
2019-04-10T08:46:31.591Z,11.98
2019-04-10T08:47:31.333Z,12.07
2019-04-10T08:48:31.599Z,12.23
2019-04-10T08:49:30.560Z,13.69
2019-04-10T08:50:30.553Z,14.75
2019-04-10T08:51:31.081Z,14.09
2019-04-10T08:52:30.563Z,13.10
2019-04-10T08:53:30.693Z,12.36
2019-04-10T08:54:30.507Z,11.66
2019-04-10T08:55:30.492Z,11.64
2019-04-10T08:56:30.492Z,11.74
2019-04-10T08:57:30.481Z,11.79
2019-04-10T08:58:30.771Z,12.62
2019-04-10T08:59:30.453Z,12.85
2019-04-10T09:00:30.443Z,13.39
2019-04-10T09:01:31.497Z,14.83
2019-04-10T09:02:30.484Z,14.79
2019-04-10T09:03:30.920Z,12.76
2019-04-10T09:04:31.181Z,12.26
2019-04-10T09:05:30.391Z,12.16
2019-04-10T09:06:31.289Z,11.27
2019-04-10T09:07:30.489Z,10.65
2019-04-10T09:08:30.382Z,10.38
2019-04-10T09:09:30.373Z,10.28
2019-04-10T09:10:30.339Z,10.93
2019-04-10T09:11:32.637Z,11.19
2019-04-10T09:12:30.310Z,11.51
2019-04-10T09:13:30.681Z,11.62
2019-04-10T09:14:30.300Z,11.62
2019-04-10T09:15:30.304Z,11.82
2019-04-10T09:16:31.007Z,12.13
2019-04-10T09:17:31.268Z,12.71
2019-04-10T09:18:31.459Z,13.31
2019-04-10T09:19:30.237Z,13.91
2019-04-10T09:20:30.944Z,14.21
2019-04-10T09:21:30.214Z,14.67
2019-04-10T09:22:47.932Z,14.82
2019-04-10T09:23:40.982Z,14.71
2019-04-10T09:24:31.188Z,15.01
2019-04-10T09:25:31.202Z,16.27
2019-04-10T09:26:30.626Z,16.47
2019-04-10T09:27:30.150Z,17.46
2019-04-10T09:28:30.713Z,18.44
2019-04-10T09:29:30.130Z,19.17
2019-04-10T09:30:31.016Z,20.75
2019-04-10T09:31:30.125Z,20.76
2019-04-10T09:32:30.670Z,20.41
2019-04-10T09:33:32.015Z,19.70
2019-04-10T09:34:30.103Z,19.34
2019-04-10T09:35:30.893Z,19.17
2019-04-10T09:36:30.120Z,18.35
2019-04-10T09:37:31.061Z,18.25
2019-04-10T09:38:30.605Z,18.23
2019-04-10T09:39:30.020Z,18.21
2019-04-10T09:40:30.126Z,17.60
2019-04-10T09:41:30.104Z,17.87
2019-04-10T09:42:31.067Z,18.13
2019-04-10T09:43:29.982Z,18.35
2019-04-10T09:44:29.965Z,18.69
2019-04-10T09:45:30.647Z,19.47
2019-04-10T09:46:30.976Z,19.71
2019-04-10T09:47:30.366Z,19.97
2019-04-10T09:48:29.928Z,19.38
2019-04-10T09:49:37.751Z,19.02
2019-04-10T09:50:31.151Z,19.61
2019-04-10T09:51:29.891Z,19.58
2019-04-10T09:52:29.991Z,19.61
2019-04-10T09:53:29.888Z,20.10
2019-04-10T09:54:31.393Z,19.70
2019-04-10T09:55:29.879Z,20.71
2019-04-10T09:56:29.930Z,21.59
2019-04-10T09:57:29.833Z,22.23
2019-04-10T09:58:29.846Z,22.70
2019-04-10T09:59:35.510Z,23.07
2019-04-10T10:00:31.881Z,23.25
2019-04-10T10:01:30.281Z,23.37
2019-04-10T10:02:29.774Z,23.84
2019-04-10T10:03:30.313Z,24.19
2019-04-10T10:04:29.789Z,24.08
2019-04-10T10:05:30.716Z,23.45
2019-04-10T10:06:33.455Z,23.07
2019-04-10T10:07:30.729Z,21.83
2019-04-10T10:08:29.723Z,21.68
2019-04-10T10:09:30.733Z,21.30
2019-04-10T10:10:29.715Z,21.66
2019-04-10T10:11:30.622Z,21.53
2019-04-10T10:12:29.679Z,21.55
2019-04-10T10:13:29.728Z,21.49
2019-04-10T10:14:31.957Z,21.77
2019-04-10T10:15:29.671Z,22.48
2019-04-10T10:16:30.347Z,22.88
2019-04-10T10:17:30.705Z,23.00
2019-04-10T10:18:29.785Z,23.31
2019-04-10T10:19:30.101Z,23.60
2019-04-10T10:20:37.701Z,23.93
2019-04-10T10:21:29.586Z,24.11
2019-04-10T10:22:30.636Z,24.19
2019-04-10T10:23:29.749Z,24.53
2019-04-10T10:24:29.561Z,24.41
2019-04-10T10:25:29.563Z,24.26
2019-04-10T10:26:30.151Z,23.97
2019-04-10T10:27:30.149Z,23.52
2019-04-10T10:28:29.522Z,23.21
2019-04-10T10:29:30.121Z,23.09
2019-04-10T10:30:29.505Z,23.72
2019-04-10T10:31:30.513Z,23.92
2019-04-10T10:32:29.493Z,24.29
2019-04-10T10:33:29.978Z,23.93
2019-04-10T10:34:30.226Z,23.60
2019-04-10T10:35:29.621Z,23.49
2019-04-10T10:36:36.769Z,22.15
2019-04-10T10:37:30.557Z,20.90
2019-04-10T10:38:29.509Z,19.55
2019-04-10T10:39:30.630Z,18.69
2019-04-10T10:40:29.816Z,19.34
2019-04-10T10:41:29.844Z,20.81
2019-04-10T10:42:29.812Z,21.56
2019-04-10T10:43:29.369Z,21.38
2019-04-10T10:44:30.147Z,20.61
2019-04-10T10:45:29.356Z,17.87
2019-04-10T10:46:29.366Z,16.14
2019-04-10T10:47:30.606Z,15.71
2019-04-10T10:48:29.555Z,15.71
2019-04-10T10:49:29.316Z,15.78
2019-04-10T10:50:29.308Z,15.96
2019-04-10T10:51:29.292Z,17.63
2019-04-10T10:52:29.281Z,19.45
2019-04-10T10:53:30.368Z,20.34
2019-04-10T10:54:29.471Z,21.53
2019-04-10T10:55:29.758Z,22.29
2019-04-10T10:56:29.262Z,20.96
2019-04-10T10:57:29.233Z,20.07
2019-04-10T10:58:30.034Z,18.32
2019-04-10T10:59:29.486Z,17.47
2019-04-10T11:00:29.452Z,18.60
2019-04-10T11:01:29.564Z,20.25
2019-04-10T11:02:29.677Z,21.81
2019-04-10T11:03:29.945Z,23.00
2019-04-10T11:04:29.581Z,23.72
2019-04-10T11:05:31.550Z,24.29
2019-04-10T11:06:29.155Z,23.15
2019-04-10T11:07:29.137Z,21.90
2019-04-10T11:08:29.442Z,21.15
2019-04-10T11:09:30.100Z,20.60
2019-04-10T11:10:30.070Z,19.60
2019-04-10T11:11:29.090Z,18.99
2019-04-10T11:12:30.377Z,18.74
2019-04-10T11:13:29.068Z,18.39
2019-04-10T11:14:29.950Z,17.62
2019-04-10T11:15:29.073Z,16.01
2019-04-10T11:16:29.395Z,14.90
2019-04-10T11:17:29.763Z,14.67
2019-04-10T11:18:29.011Z,16.03
2019-04-10T11:19:29.156Z,18.07
2019-04-10T11:20:29.827Z,18.49
2019-04-10T11:21:29.953Z,18.13
2019-04-10T11:22:29.063Z,17.54
2019-04-10T11:23:30.448Z,16.80
2019-04-10T11:24:28.990Z,17.17
2019-04-10T11:25:29.996Z,18.09
2019-04-10T11:26:30.318Z,19.61
2019-04-10T11:27:29.403Z,20.15
2019-04-10T11:28:30.713Z,20.40
2019-04-10T11:29:28.906Z,21.53
2019-04-10T11:30:28.894Z,22.61
2019-04-10T11:31:29.172Z,22.75
2019-04-10T11:32:30.296Z,23.09
2019-04-10T11:33:28.886Z,23.92
2019-04-10T11:34:29.351Z,24.34
2019-04-10T11:35:29.041Z,24.21
2019-04-10T11:36:30.012Z,21.94
2019-04-10T11:37:37.542Z,20.73
2019-04-10T11:38:29.903Z,19.92
2019-04-10T11:39:31.751Z,19.50
2019-04-10T11:40:31.655Z,19.06
2019-04-10T11:41:30.875Z,18.64
2019-04-10T11:42:29.078Z,18.38
2019-04-10T11:43:30.136Z,17.81
2019-04-10T11:44:28.751Z,17.83
2019-04-10T11:45:37.522Z,17.49
2019-04-10T11:46:32.001Z,17.40
2019-04-10T11:47:29.154Z,17.76
2019-04-10T11:48:29.481Z,17.42
2019-04-10T11:49:29.486Z,17.28
2019-04-10T11:50:30.041Z,17.05
2019-04-10T11:51:30.640Z,17.25
2019-04-10T11:52:36.338Z,18.65
2019-04-10T11:53:32.714Z,19.86
2019-04-10T11:54:31.967Z,20.75
2019-04-10T11:55:29.737Z,21.82
2019-04-10T11:56:29.986Z,22.59
2019-04-10T11:57:30.754Z,22.63
2019-04-10T11:58:29.124Z,22.81
2019-04-10T11:59:29.485Z,23.03
2019-04-10T12:00:30.213Z,23.45
2019-04-10T12:01:30.775Z,24.11
2019-04-10T12:02:32.184Z,24.27
2019-04-10T12:03:31.352Z,24.18
2019-04-10T12:04:30.821Z,24.41
2019-04-10T12:05:31.665Z,24.12
2019-04-10T12:06:30.875Z,24.05
2019-04-10T12:07:54.880Z,24.24
2019-04-10T12:08:51.685Z,24.36
2019-04-10T12:10:49.528Z,22.36
2019-04-10T12:11:29.472Z,19.62
2019-04-10T12:12:28.472Z,19.75
2019-04-10T12:13:28.500Z,20.91
2019-04-10T12:14:28.450Z,20.58
2019-04-10T12:15:28.444Z,18.79
2019-04-10T12:16:29.411Z,17.12
2019-04-10T12:17:28.413Z,16.40
2019-04-10T12:18:28.724Z,16.60
2019-04-10T12:19:29.013Z,18.13
2019-04-10T12:20:29.221Z,18.91
2019-04-10T12:21:29.485Z,18.74
2019-04-10T12:22:29.348Z,18.83
2019-04-10T12:23:29.256Z,18.56
2019-04-10T12:24:28.367Z,19.43
2019-04-10T12:25:29.059Z,18.01
2019-04-10T12:26:28.338Z,19.21
2019-04-10T12:27:29.321Z,20.15
2019-04-10T12:28:28.314Z,21.48
2019-04-10T12:29:28.945Z,22.12
2019-04-10T12:30:28.985Z,22.97
2019-04-10T12:31:28.283Z,22.97
2019-04-10T12:32:28.545Z,21.77
2019-04-10T12:33:28.270Z,22.19
2019-04-10T12:34:28.581Z,22.35
2019-04-10T12:35:28.239Z,22.48
2019-04-10T12:36:28.807Z,21.90
2019-04-10T12:37:28.238Z,22.45
2019-04-10T12:38:28.215Z,21.16
2019-04-10T12:39:28.209Z,19.71
2019-04-10T12:40:28.740Z,18.68
2019-04-10T12:41:28.171Z,17.83
2019-04-10T12:42:28.199Z,17.47
2019-04-10T12:43:29.199Z,17.21
2019-04-10T12:44:28.153Z,16.88
2019-04-10T12:45:28.352Z,16.25
2019-04-10T12:46:28.914Z,15.64
2019-04-10T12:47:28.132Z,15.15
2019-04-10T12:48:28.532Z,14.75
2019-04-10T12:49:28.094Z,14.69
2019-04-10T12:50:28.683Z,14.21
2019-04-10T12:51:28.071Z,14.36
2019-04-10T12:52:28.100Z,14.26
2019-04-10T12:53:28.053Z,14.35
2019-04-10T12:54:28.080Z,14.17
2019-04-10T12:55:28.298Z,13.88
2019-04-10T12:56:28.307Z,15.51
2019-04-10T12:57:28.642Z,17.39
2019-04-10T12:58:28.904Z,19.16
2019-04-10T12:59:27.993Z,20.79
2019-04-10T13:00:27.982Z,21.71
2019-04-10T13:01:28.906Z,22.64
2019-04-10T13:02:28.076Z,22.81
2019-04-10T13:03:27.941Z,23.35
2019-04-10T13:04:28.222Z,23.41
2019-04-10T13:05:27.926Z,23.87
2019-04-10T13:06:27.922Z,23.82
2019-04-10T13:07:27.932Z,23.99